createdAt,value
2018-09-28T00:00:49.525Z,13.92
2018-09-28T00:02:04.202Z,13.91
2018-09-28T00:02:49.562Z,13.87
2018-09-28T00:03:49.330Z,13.78
2018-09-28T00:05:49.629Z,13.71
2018-09-28T00:07:04.103Z,13.7
2018-09-28T00:07:49.678Z,13.78
2018-09-28T00:08:49.695Z,13.64
2018-09-28T00:09:49.712Z,13.64
2018-09-28T00:10:49.481Z,13.67
2018-09-28T00:11:49.510Z,13.6
2018-09-28T00:12:49.571Z,13.67
2018-09-28T00:14:04.463Z,13.63
2018-09-28T00:14:49.820Z,13.6
2018-09-28T00:15:49.853Z,13.67
2018-09-28T00:16:49.865Z,13.62
2018-09-28T00:17:49.884Z,13.62
2018-09-28T00:18:49.906Z,13.62
2018-09-28T00:19:49.931Z,13.63
2018-09-28T00:20:49.692Z,13.67
2018-09-28T00:21:49.983Z,13.63
2018-09-28T00:23:50.021Z,13.63
2018-09-28T00:25:04.743Z,13.64
2018-09-28T00:25:50.110Z,13.64
2018-09-28T00:26:50.082Z,13.67
2018-09-28T00:27:50.104Z,13.69
2018-09-28T00:28:50.122Z,13.62
2018-09-28T00:29:50.146Z,13.59
2018-09-28T00:31:04.825Z,13.63
2018-09-28T00:32:04.848Z,13.62
2018-09-28T00:32:50.210Z,13.62
2018-09-28T00:34:50.252Z,13.63
2018-09-28T00:35:50.120Z,13.62
2018-09-28T00:36:50.295Z,13.62
2018-09-28T00:39:04.997Z,13.63
2018-09-28T00:39:50.364Z,13.66
2018-09-28T00:40:50.121Z,13.52
2018-09-28T00:41:50.140Z,13.52
2018-09-28T00:43:50.439Z,13.54
2018-09-28T00:44:50.466Z,13.49
2018-09-28T00:45:50.483Z,13.46
2018-09-28T00:46:50.513Z,13.52
2018-09-28T00:47:50.269Z,13.55
2018-09-28T00:48:50.547Z,13.38
2018-09-28T00:49:50.567Z,13.48
2018-09-28T00:50:50.333Z,13.45
2018-09-28T00:51:50.613Z,13.51
2018-09-28T00:52:50.630Z,13.49
2018-09-28T00:53:50.655Z,13.49
2018-09-28T00:55:05.336Z,13.48
2018-09-28T00:55:50.440Z,13.38
2018-09-28T00:56:50.717Z,13.39
2018-09-28T00:57:50.482Z,13.51
2018-09-28T00:58:50.757Z,13.44
2018-09-28T00:59:50.783Z,13.38
2018-09-28T01:00:50.285Z,13.32
2018-09-28T01:01:50.821Z,13.3
2018-09-28T01:02:50.867Z,13.3
2018-09-28T01:03:50.707Z,13.19
2018-09-28T01:04:50.890Z,13.23
2018-09-28T01:05:50.907Z,13.28
2018-09-28T01:06:50.935Z,13.33
2018-09-28T01:07:50.948Z,13.32
2018-09-28T01:08:50.977Z,13.22
2018-09-28T01:09:50.992Z,13.2
2018-09-28T01:11:05.671Z,13.2
2018-09-28T01:11:51.038Z,13.08
2018-09-28T01:13:51.075Z,13.17
2018-09-28T01:14:51.095Z,13.2
2018-09-28T01:15:51.120Z,13.14
2018-09-28T01:16:51.142Z,13.14
2018-09-28T01:17:51.161Z,13.2
2018-09-28T01:18:50.980Z,13.01
2018-09-28T01:19:50.947Z,13.08
2018-09-28T01:20:50.970Z,13
2018-09-28T01:21:51.246Z,13.01
2018-09-28T01:22:51.321Z,13.03
2018-09-28T01:23:51.290Z,12.95
2018-09-28T01:24:51.308Z,13.07
2018-09-28T01:25:51.330Z,13.04
2018-09-28T01:27:06.011Z,12.97
2018-09-28T01:28:51.392Z,12.9
2018-09-28T01:29:51.413Z,12.9
2018-09-28T01:31:51.197Z,12.85
2018-09-28T01:32:51.216Z,12.87
2018-09-28T01:33:50.981Z,12.86
2018-09-28T01:34:51.514Z,12.87
2018-09-28T01:35:51.540Z,12.83
2018-09-28T01:36:51.563Z,12.85
2018-09-28T01:37:51.579Z,12.82
2018-09-28T01:38:51.653Z,12.82
2018-09-28T01:39:51.621Z,12.86
2018-09-28T01:40:51.642Z,12.77
2018-09-28T01:42:06.067Z,12.78
2018-09-28T01:42:51.457Z,12.83
2018-09-28T01:43:51.707Z,12.85
2018-09-28T01:44:51.733Z,12.79
2018-09-28T01:45:51.747Z,12.77
2018-09-28T01:46:51.777Z,12.71
2018-09-28T01:47:51.530Z,12.71
2018-09-28T01:48:51.812Z,12.77
2018-09-28T01:49:51.842Z,12.68
2018-09-28T01:51:06.513Z,12.7
2018-09-28T01:51:51.615Z,12.7
2018-09-28T01:52:51.636Z,12.64
2018-09-28T01:53:51.923Z,12.68
2018-09-28T01:54:51.675Z,12.64
2018-09-28T01:55:51.959Z,12.64
2018-09-28T01:56:51.989Z,12.65
2018-09-28T01:58:52.018Z,12.64
2018-09-28T02:00:52.060Z,12.7
2018-09-28T02:01:51.826Z,12.7
2018-09-28T02:02:52.101Z,12.82
2018-09-28T02:03:52.134Z,12.77
2018-09-28T02:04:52.143Z,12.86
2018-09-28T02:05:52.167Z,12.86
2018-09-28T02:06:51.935Z,12.83
2018-09-28T02:07:52.204Z,12.92
2018-09-28T02:08:52.228Z,12.86
2018-09-28T02:09:52.256Z,12.89
2018-09-28T02:10:52.269Z,12.92
2018-09-28T02:11:52.286Z,12.95
2018-09-28T02:14:06.989Z,12.87
2018-09-28T02:14:52.356Z,12.85
2018-09-28T02:15:52.257Z,12.87
2018-09-28T02:16:52.140Z,12.9
2018-09-28T02:18:51.919Z,12.87
2018-09-28T02:20:07.119Z,12.89
2018-09-28T02:20:52.474Z,12.86
2018-09-28T02:21:52.238Z,12.86
2018-09-28T02:22:52.521Z,12.86
2018-09-28T02:23:52.536Z,12.89
2018-09-28T02:24:53.012Z,12.87
2018-09-28T02:25:52.586Z,12.9
2018-09-28T02:26:52.601Z,12.93
2018-09-28T02:28:52.644Z,12.9
2018-09-28T02:30:07.329Z,12.89
2018-09-28T02:30:52.702Z,12.9
2018-09-28T02:31:52.445Z,12.89
2018-09-28T02:32:52.721Z,13.08
2018-09-28T02:35:52.789Z,12.95
2018-09-28T02:36:52.558Z,12.92
2018-09-28T02:37:52.835Z,12.92
2018-09-28T02:38:52.851Z,12.96
2018-09-28T02:40:07.272Z,13.04
2018-09-28T02:40:52.637Z,13.03
2018-09-28T02:41:52.921Z,13
2018-09-28T02:42:52.673Z,12.96
2018-09-28T02:43:52.436Z,13.01
2018-09-28T02:44:53.523Z,12.95
2018-09-28T02:46:07.397Z,12.92
2018-09-28T02:46:52.762Z,12.89
2018-09-28T02:47:53.039Z,12.95
2018-09-28T02:48:53.057Z,13
2018-09-28T02:49:52.821Z,12.95
2018-09-28T02:50:52.842Z,13.05
2018-09-28T02:51:52.864Z,13.19
2018-09-28T02:52:53.147Z,13.12
2018-09-28T02:53:52.901Z,13.2
2018-09-28T02:54:52.925Z,13.22
2018-09-28T02:55:53.200Z,13.15
2018-09-28T02:56:53.398Z,13.22
2018-09-28T02:57:53.240Z,13.2
2018-09-28T02:58:53.270Z,13.15
2018-09-28T02:59:53.035Z,13.2
2018-09-28T03:00:53.311Z,13.23
2018-09-28T03:02:07.985Z,13.33
2018-09-28T03:03:53.370Z,13.49
2018-09-28T03:04:53.389Z,13.45
2018-09-28T03:05:53.409Z,13.41
2018-09-28T03:06:53.433Z,13.33
2018-09-28T03:07:53.448Z,13.39
2018-09-28T03:08:53.476Z,13.44
2018-09-28T03:09:53.489Z,13.42
2018-09-28T03:10:53.514Z,13.39
2018-09-28T03:12:08.191Z,13.59
2018-09-28T03:13:07.953Z,13.52
2018-09-28T03:13:53.645Z,13.49
2018-09-28T03:14:53.594Z,13.52
2018-09-28T03:15:53.359Z,13.48
2018-09-28T03:17:08.298Z,13.38
2018-09-28T03:18:53.730Z,13.48
2018-09-28T03:19:53.700Z,13.44
2018-09-28T03:20:53.720Z,13.54
2018-09-28T03:21:53.744Z,13.51
2018-09-28T03:22:53.760Z,13.55
2018-09-28T03:23:53.788Z,13.6
2018-09-28T03:24:53.552Z,13.63
2018-09-28T03:25:54.206Z,13.52
2018-09-28T03:26:53.845Z,13.52
2018-09-28T03:28:53.892Z,13.59
2018-09-28T03:29:53.903Z,13.6
2018-09-28T03:31:53.695Z,13.67
2018-09-28T03:32:53.710Z,13.67
2018-09-28T03:33:54.015Z,13.79
2018-09-28T03:34:54.012Z,13.77
2018-09-28T03:35:54.028Z,13.79
2018-09-28T03:36:53.797Z,13.73
2018-09-28T03:37:54.069Z,13.71
2018-09-28T03:38:54.093Z,13.67
2018-09-28T03:39:54.114Z,13.69
2018-09-28T03:40:53.874Z,13.64
2018-09-28T03:41:53.900Z,13.62
2018-09-28T03:42:54.175Z,13.62
2018-09-28T03:43:54.194Z,13.62
2018-09-28T03:44:54.216Z,13.69
2018-09-28T03:45:54.236Z,13.62
2018-09-28T03:46:54.257Z,13.54
2018-09-28T03:47:54.290Z,13.59
2018-09-28T03:49:08.702Z,13.6
2018-09-28T03:49:54.320Z,13.48
2018-09-28T03:50:54.355Z,13.52
2018-09-28T03:51:54.363Z,13.52
2018-09-28T03:53:54.409Z,13.51
2018-09-28T03:54:54.166Z,13.52
2018-09-28T03:55:54.445Z,13.55
2018-09-28T03:57:09.124Z,13.57
2018-09-28T03:57:54.486Z,13.57
2018-09-28T03:58:54.510Z,13.51
2018-09-28T03:59:54.529Z,13.52
2018-09-28T04:00:54.548Z,13.49
2018-09-28T04:02:54.811Z,13.46
2018-09-28T04:03:54.358Z,13.46
2018-09-28T04:05:09.031Z,13.44
2018-09-28T04:05:54.850Z,13.42
2018-09-28T04:06:54.418Z,13.39
2018-09-28T04:08:54.728Z,13.28
2018-09-28T04:09:54.733Z,13.29
2018-09-28T04:10:54.754Z,13.32
2018-09-28T04:11:54.785Z,13.29
2018-09-28T04:12:54.795Z,13.2
2018-09-28T04:14:09.475Z,13.28
2018-09-28T04:14:54.919Z,13.33
2018-09-28T04:15:54.860Z,13.28
2018-09-28T04:16:54.883Z,13.23
2018-09-28T04:17:54.643Z,13.26
2018-09-28T04:18:54.918Z,13.2
2018-09-28T04:19:54.684Z,13.23
2018-09-28T04:21:09.628Z,13.08
2018-09-28T04:21:55.101Z,13.22
2018-09-28T04:23:55.027Z,13.15
2018-09-28T04:24:55.040Z,13.14
2018-09-28T04:25:55.066Z,13.1
2018-09-28T04:26:55.094Z,13
2018-09-28T04:28:09.765Z,13.07
2018-09-28T04:29:09.783Z,12.96
2018-09-28T04:29:54.885Z,13.01
2018-09-28T04:30:55.162Z,13.05
2018-09-28T04:32:09.585Z,13.01
2018-09-28T04:32:55.203Z,13.01
2018-09-28T04:33:55.227Z,12.96
2018-09-28T04:34:55.272Z,12.92
2018-09-28T04:35:55.272Z,12.92
2018-09-28T04:37:09.949Z,12.9
2018-09-28T04:37:55.317Z,12.89
2018-09-28T04:38:55.339Z,12.96
2018-09-28T04:39:55.346Z,12.9
2018-09-28T04:40:55.113Z,12.9
2018-09-28T04:41:55.130Z,12.9
2018-09-28T04:42:55.409Z,12.86
2018-09-28T04:43:54.914Z,12.92
2018-09-28T04:44:55.447Z,12.85
2018-09-28T04:45:55.218Z,12.92
2018-09-28T04:46:55.489Z,12.89
2018-09-28T04:47:55.254Z,13
2018-09-28T04:48:55.535Z,12.97
2018-09-28T04:49:55.294Z,13.08
2018-09-28T04:50:55.575Z,13.07
2018-09-28T04:52:09.996Z,13.12
2018-09-28T04:52:55.364Z,13.14
2018-09-28T04:53:55.373Z,13.2
2018-09-28T04:54:55.397Z,13.23
2018-09-28T04:55:55.675Z,13.19
2018-09-28T04:56:55.699Z,13.33
2018-09-28T04:57:55.715Z,13.42
2018-09-28T04:58:55.735Z,13.42
2018-09-28T04:59:55.766Z,13.46
2018-09-28T05:00:55.525Z,13.46
2018-09-28T05:01:55.795Z,13.55
2018-09-28T05:02:55.824Z,13.62
2018-09-28T05:03:55.838Z,13.6
2018-09-28T05:04:55.860Z,13.55
2018-09-28T05:05:55.879Z,13.63
2018-09-28T05:06:55.905Z,13.52
2018-09-28T05:07:55.662Z,13.54
2018-09-28T05:08:55.943Z,13.69
2018-09-28T05:09:55.965Z,13.6
2018-09-28T05:10:55.987Z,13.63
2018-09-28T05:11:55.747Z,13.64
2018-09-28T05:14:10.709Z,13.67
2018-09-28T05:14:56.072Z,13.66
2018-09-28T05:15:56.086Z,13.71
2018-09-28T05:16:56.106Z,13.81
2018-09-28T05:17:56.127Z,13.77
2018-09-28T05:18:56.154Z,13.78
2018-09-28T05:19:56.173Z,13.79
2018-09-28T05:20:56.192Z,13.88
2018-09-28T05:21:55.959Z,13.95
2018-09-28T05:22:56.071Z,14.02
2018-09-28T05:24:10.911Z,14.04
2018-09-28T05:26:56.313Z,14.1
2018-09-28T05:27:56.334Z,14.12
2018-09-28T05:28:56.356Z,14.06
2018-09-28T05:29:56.379Z,14.12
2018-09-28T05:30:59.249Z,14.15
2018-09-28T05:31:56.557Z,14.18
2018-09-28T05:32:56.608Z,14.18
2018-09-28T05:33:56.464Z,14.22
2018-09-28T05:34:56.481Z,14.18
2018-09-28T05:35:56.245Z,14.32
2018-09-28T05:36:56.264Z,14.36
2018-09-28T05:37:56.282Z,14.39
2018-09-28T05:38:56.303Z,14.33
2018-09-28T05:40:11.244Z,14.32
2018-09-28T05:40:56.606Z,14.32
2018-09-28T05:41:56.626Z,14.45
2018-09-28T05:42:56.645Z,14.36
2018-09-28T05:43:56.491Z,14.43
2018-09-28T05:45:56.453Z,14.45
2018-09-28T05:46:56.733Z,14.46
2018-09-28T05:47:56.765Z,14.45
2018-09-28T05:49:11.433Z,14.5
2018-09-28T05:49:56.797Z,14.4
2018-09-28T05:50:56.812Z,14.32
2018-09-28T05:51:56.837Z,14.37
2018-09-28T05:52:56.852Z,14.4
2018-09-28T05:53:56.879Z,14.37
2018-09-28T05:54:56.634Z,14.43
2018-09-28T05:56:11.575Z,14.36
2018-09-28T05:56:56.680Z,14.37
2018-09-28T05:57:56.956Z,14.4
2018-09-28T05:58:56.981Z,14.37
2018-09-28T05:59:56.998Z,14.43
2018-09-28T06:00:57.017Z,14.37
2018-09-28T06:01:56.784Z,14.37
2018-09-28T06:02:56.846Z,14.39
2018-09-28T06:03:57.083Z,14.35
2018-09-28T06:04:57.132Z,14.39
2018-09-28T06:05:57.122Z,14.35
2018-09-28T06:06:57.192Z,14.33
2018-09-28T06:07:57.167Z,14.36
2018-09-28T06:08:57.184Z,14.25
2018-09-28T06:09:57.209Z,14.39
2018-09-28T06:10:56.969Z,14.35
2018-09-28T06:12:11.910Z,14.37
2018-09-28T06:13:11.927Z,14.33
2018-09-28T06:13:57.287Z,14.4
2018-09-28T06:14:57.310Z,14.39
2018-09-28T06:15:57.438Z,14.28
2018-09-28T06:16:57.350Z,14.29
2018-09-28T06:17:57.568Z,14.33
2018-09-28T06:18:57.573Z,14.4
2018-09-28T06:19:57.431Z,14.35
2018-09-28T06:20:57.444Z,14.4
2018-09-28T06:21:57.454Z,14.35
2018-09-28T06:22:57.476Z,14.36
2018-09-28T06:23:57.534Z,14.29
2018-09-28T06:24:57.257Z,14.24
2018-09-28T06:25:57.827Z,14.33
2018-09-28T06:27:12.219Z,14.35
2018-09-28T06:27:57.586Z,14.29
2018-09-28T06:29:57.857Z,14.39
2018-09-28T06:30:57.644Z,14.33
2018-09-28T06:32:12.329Z,14.39
2018-09-28T06:32:57.683Z,14.51
2018-09-28T06:33:57.705Z,14.47
2018-09-28T06:34:57.468Z,14.47
2018-09-28T06:35:58.027Z,14.47
2018-09-28T06:36:57.774Z,14.4
2018-09-28T06:37:57.791Z,14.42
2018-09-28T06:38:57.814Z,14.46
2018-09-28T06:39:57.851Z,14.52
2018-09-28T06:41:12.522Z,14.51
2018-09-28T06:41:57.831Z,14.5
2018-09-28T06:42:57.636Z,14.58
2018-09-28T06:43:57.914Z,14.54
2018-09-28T06:44:57.939Z,14.64
2018-09-28T06:45:58.005Z,14.72
2018-09-28T06:47:12.643Z,14.62
2018-09-28T06:48:57.898Z,14.62
2018-09-28T06:50:12.702Z,14.68
2018-09-28T06:50:58.060Z,14.62
2018-09-28T06:51:58.085Z,14.68
2018-09-28T06:52:57.845Z,14.72
2018-09-28T06:53:58.420Z,14.69
2018-09-28T06:54:58.143Z,14.73
2018-09-28T06:55:58.174Z,14.83
2018-09-28T06:56:58.185Z,14.88
2018-09-28T06:57:58.210Z,14.92
2018-09-28T06:59:12.893Z,14.95
2018-09-28T06:59:58.282Z,14.89
2018-09-28T07:00:58.016Z,15.28
2018-09-28T07:01:58.038Z,15.44
2018-09-28T07:02:58.316Z,15.69
2018-09-28T07:03:58.500Z,15.94
2018-09-28T07:04:58.103Z,16.21
2018-09-28T07:05:58.726Z,16.35
2018-09-28T07:06:58.404Z,16.53
2018-09-28T07:08:13.090Z,16.67
2018-09-28T07:08:58.195Z,16.83
2018-09-28T07:09:58.480Z,16.58
2018-09-28T07:10:58.242Z,16.49
2018-09-28T07:11:58.802Z,16.61
2018-09-28T07:12:58.610Z,16.52
2018-09-28T07:13:58.317Z,16.63
2018-09-28T07:15:13.259Z,16.41
2018-09-28T07:15:58.632Z,16.27
2018-09-28T07:16:58.522Z,16.15
2018-09-28T07:17:59.025Z,16.01
2018-09-28T07:18:58.704Z,15.93
2018-09-28T07:19:58.725Z,15.74
2018-09-28T07:20:58.636Z,15.74
2018-09-28T07:21:58.252Z,15.51
2018-09-28T07:22:58.808Z,15.53
2018-09-28T07:23:59.075Z,15.54
2018-09-28T07:24:59.012Z,15.67
2018-09-28T07:25:58.866Z,15.51
2018-09-28T07:26:58.895Z,15.65
2018-09-28T07:27:58.916Z,15.68
2018-09-28T07:28:58.941Z,15.69
2018-09-28T07:29:59.303Z,15.89
2018-09-28T07:31:59.009Z,15.92
2018-09-28T07:32:59.034Z,16.11
2018-09-28T07:33:58.807Z,16.01
2018-09-28T07:34:59.100Z,16.21
2018-09-28T07:35:59.110Z,16.35
2018-09-28T07:37:58.896Z,16.31
2018-09-28T07:38:58.917Z,16.33
2018-09-28T07:39:58.945Z,16.17
2018-09-28T07:40:59.242Z,16.05
2018-09-28T07:42:13.723Z,16.01
2018-09-28T07:42:59.025Z,16.01
2018-09-28T07:43:59.046Z,15.94
2018-09-28T07:44:59.331Z,15.89
2018-09-28T07:45:59.356Z,15.93
2018-09-28T07:47:14.037Z,15.76
2018-09-28T07:47:59.017Z,15.8
2018-09-28T07:48:59.443Z,15.78
2018-09-28T07:49:59.448Z,15.93
2018-09-28T07:50:59.470Z,16.09
2018-09-28T07:51:59.498Z,16.11
2018-09-28T07:52:59.526Z,16.12
2018-09-28T07:53:59.549Z,16.07
2018-09-28T07:54:59.570Z,15.92
2018-09-28T07:55:59.454Z,16.05
2018-09-28T07:56:59.360Z,16.11
2018-09-28T07:57:59.647Z,16
2018-09-28T07:58:59.666Z,16.14
2018-09-28T07:59:59.697Z,16.28
2018-09-28T08:00:59.460Z,16.24
2018-09-28T08:02:14.405Z,16.31
2018-09-28T08:02:59.772Z,16.33
2018-09-28T08:03:59.693Z,16.48
2018-09-28T08:04:59.818Z,16.58
2018-09-28T08:05:59.850Z,16.66
2018-09-28T08:06:59.865Z,16.71
2018-09-28T08:07:59.896Z,16.83
2018-09-28T08:08:59.914Z,17.08
2018-09-28T08:09:59.686Z,16.82
2018-09-28T08:11:14.626Z,16.53
2018-09-28T08:13:00.019Z,16.38
2018-09-28T08:14:00.048Z,16.53
2018-09-28T08:15:00.064Z,16.61
2018-09-28T08:16:00.096Z,16.82
2018-09-28T08:17:00.112Z,17.12
2018-09-28T08:18:00.141Z,16.82
2018-09-28T08:19:00.189Z,17.01
2018-09-28T08:20:00.187Z,16.91
2018-09-28T08:21:00.219Z,16.86
2018-09-28T08:22:00.238Z,16.66
2018-09-28T08:23:00.267Z,16.61
2018-09-28T08:24:00.286Z,16.66
2018-09-28T08:25:00.311Z,16.52
2018-09-28T08:26:14.998Z,16.35
2018-09-28T08:28:00.385Z,16.39
2018-09-28T08:29:00.151Z,16.56
2018-09-28T08:30:00.640Z,16.66
2018-09-28T08:31:00.462Z,16.79
2018-09-28T08:32:00.490Z,16.88
2018-09-28T08:33:00.504Z,17.08
2018-09-28T08:34:15.192Z,17.04
2018-09-28T08:35:00.556Z,16.91
2018-09-28T08:36:00.593Z,16.86
2018-09-28T08:37:00.348Z,17.03
2018-09-28T08:38:00.631Z,16.97
2018-09-28T08:39:00.395Z,16.86
2018-09-28T08:40:00.688Z,16.67
2018-09-28T08:41:00.703Z,16.63
2018-09-28T08:42:01.054Z,16.53
2018-09-28T08:43:00.515Z,16.52
2018-09-28T08:44:00.785Z,16.68
2018-09-28T08:45:00.805Z,16.82
2018-09-28T08:46:00.928Z,16.66
2018-09-28T08:47:00.853Z,16.88
2018-09-28T08:48:00.873Z,17.03
2018-09-28T08:49:00.642Z,17.11
2018-09-28T08:51:00.693Z,17.58
2018-09-28T08:52:00.975Z,17.82
2018-09-28T08:53:01.000Z,18.08
2018-09-28T08:54:01.023Z,18.32
2018-09-28T08:55:00.795Z,18.2
2018-09-28T08:56:01.076Z,18.14
2018-09-28T08:57:01.095Z,17.86
2018-09-28T08:58:01.120Z,17.84
2018-09-28T08:59:15.807Z,17.43
2018-09-28T09:00:01.174Z,17.38
2018-09-28T09:01:00.681Z,17.37
2018-09-28T09:02:01.445Z,17.56
2018-09-28T09:03:00.989Z,17.7
2018-09-28T09:04:01.372Z,17.96
2018-09-28T09:06:15.985Z,17.52
2018-09-28T09:07:01.090Z,17.71
2018-09-28T09:08:01.107Z,17.87
2018-09-28T09:10:01.255Z,18.12
2018-09-28T09:11:01.440Z,18.21
2018-09-28T09:12:01.211Z,17.92
2018-09-28T09:13:01.231Z,17.51
2018-09-28T09:14:16.174Z,17.63
2018-09-28T09:15:16.197Z,17.96
2018-09-28T09:16:01.303Z,18.1
2018-09-28T09:17:15.989Z,17.96
2018-09-28T09:18:16.468Z,18.02
2018-09-28T09:19:01.377Z,18.26
2018-09-28T09:20:01.764Z,18.37
2018-09-28T09:21:01.684Z,18.82
2018-09-28T09:22:16.429Z,18.75
2018-09-28T09:24:02.098Z,19.11
2018-09-28T09:25:01.788Z,19.16
2018-09-28T09:26:01.814Z,18.91
2018-09-28T09:27:01.575Z,18.72
2018-09-28T09:29:16.551Z,18.52
2018-09-28T09:30:02.048Z,18.6
2018-09-28T09:31:16.334Z,18.17
2018-09-28T09:32:01.696Z,18.1
2018-09-28T09:33:01.977Z,18.1
2018-09-28T09:34:02.011Z,17.54
2018-09-28T09:35:02.025Z,17.14
2018-09-28T09:36:02.053Z,17.21
2018-09-28T09:37:16.737Z,17.25
2018-09-28T09:38:01.844Z,17.26
2018-09-28T09:39:01.871Z,17.23
2018-09-28T09:40:01.893Z,17.28
2018-09-28T09:41:02.180Z,16.82
2018-09-28T09:42:02.200Z,16.79
2018-09-28T09:43:02.229Z,16.7
2018-09-28T09:45:02.282Z,17.06
2018-09-28T09:46:16.954Z,17.21
2018-09-28T09:47:02.319Z,17.38
2018-09-28T09:48:02.347Z,17.79
2018-09-28T09:49:02.527Z,18.1
2018-09-28T09:51:02.161Z,18.55
2018-09-28T09:52:02.455Z,18.58
2018-09-28T09:55:02.523Z,18.98
2018-09-28T09:56:02.277Z,18.81
2018-09-28T09:58:02.405Z,18.5
2018-09-28T09:59:02.351Z,18.27
2018-09-28T10:00:02.641Z,17.64
2018-09-28T10:01:02.661Z,17.56
2018-09-28T10:02:17.344Z,17.7
2018-09-28T10:03:02.452Z,17.71
2018-09-28T10:04:02.476Z,17.84
2018-09-28T10:06:02.780Z,17.55
2018-09-28T10:07:02.809Z,17.41
2018-09-28T10:08:02.829Z,17.28
2018-09-28T10:09:17.513Z,17.11
2018-09-28T10:10:02.624Z,16.93
2018-09-28T10:12:02.931Z,16.93
2018-09-28T10:13:02.953Z,16.89
2018-09-28T10:14:02.977Z,17.07
2018-09-28T10:15:03.000Z,16.81
2018-09-28T10:16:02.793Z,16.86
2018-09-28T10:17:03.053Z,17.03
2018-09-28T10:18:17.733Z,17.16
2018-09-28T10:19:02.583Z,17.08
2018-09-28T10:20:03.163Z,17.07
2018-09-28T10:21:03.144Z,16.93
2018-09-28T10:22:03.169Z,16.98
2018-09-28T10:24:03.226Z,17.07
2018-09-28T10:25:17.904Z,17.14
2018-09-28T10:27:03.370Z,16.57
2018-09-28T10:28:03.184Z,16.64
2018-09-28T10:29:03.357Z,16.67
2018-09-28T10:30:03.104Z,16.6
2018-09-28T10:31:03.127Z,16.64
2018-09-28T10:32:03.408Z,16.64
2018-09-28T10:33:03.445Z,16.83
2018-09-28T10:34:03.466Z,16.97
2018-09-28T10:35:17.883Z,17.06
2018-09-28T10:36:03.510Z,17.06
2018-09-28T10:37:03.010Z,17.04
2018-09-28T10:38:03.291Z,17.38
2018-09-28T10:39:03.324Z,17.23
2018-09-28T10:40:03.601Z,17.15
2018-09-28T10:41:18.607Z,17.16
2018-09-28T10:42:03.653Z,17.18
2018-09-28T10:43:03.418Z,17.21
2018-09-28T10:44:03.436Z,17.23
2018-09-28T10:45:03.716Z,17.26
2018-09-28T10:46:03.478Z,17.4
2018-09-28T10:47:03.505Z,17.43
2018-09-28T10:48:18.446Z,17.44
2018-09-28T10:49:03.808Z,17.49
2018-09-28T10:50:03.574Z,17.4
2018-09-28T10:51:18.372Z,17.66
2018-09-28T10:52:18.583Z,17.79
2018-09-28T10:53:04.165Z,17.72
2018-09-28T10:54:03.924Z,17.71
2018-09-28T10:55:04.352Z,17.64
2018-09-28T10:56:03.971Z,17.71
2018-09-28T10:57:18.864Z,18.07
2018-09-28T10:58:04.028Z,18.11
2018-09-28T10:59:04.299Z,18.26
2018-09-28T11:00:04.072Z,18.25
2018-09-28T11:01:04.095Z,18.05
2018-09-28T11:02:04.115Z,18.07
2018-09-28T11:03:04.133Z,18.12
2018-09-28T11:04:04.157Z,18.25
2018-09-28T11:05:18.847Z,18.32
2018-09-28T11:06:03.945Z,18.26
2018-09-28T11:08:03.996Z,18.05
2018-09-28T11:09:04.598Z,17.97
2018-09-28T11:10:04.299Z,17.92
2018-09-28T11:11:04.327Z,17.95
2018-09-28T11:12:19.007Z,17.66
2018-09-28T11:14:04.132Z,17.86
2018-09-28T11:15:04.415Z,17.99
2018-09-28T11:16:04.188Z,18.05
2018-09-28T11:17:19.126Z,18.26
2018-09-28T11:18:04.225Z,18.21
2018-09-28T11:19:04.892Z,18.25
2018-09-28T11:20:04.537Z,18.14
2018-09-28T11:21:19.295Z,18.29
2018-09-28T11:22:04.578Z,18.17
2018-09-28T11:23:04.346Z,18.07
2018-09-28T11:24:04.631Z,17.95
2018-09-28T11:25:04.646Z,17.82
2018-09-28T11:26:04.420Z,17.54
2018-09-28T11:28:04.726Z,17.14
2018-09-28T11:29:04.736Z,17.12
2018-09-28T11:30:04.775Z,17.25
2018-09-28T11:31:04.536Z,17.26
2018-09-28T11:32:04.292Z,17.36
2018-09-28T11:33:04.844Z,17.28
2018-09-28T11:34:04.858Z,17.41
2018-09-28T11:35:04.627Z,17.43
2018-09-28T11:36:19.564Z,17.81
2018-09-28T11:37:19.585Z,17.96
2018-09-28T11:38:19.351Z,18.11
2018-09-28T11:39:04.557Z,18.32
2018-09-28T11:40:19.396Z,18.3
2018-09-28T11:41:05.018Z,18.44
2018-09-28T11:42:05.048Z,18.6
2018-09-28T11:44:19.749Z,18.69
2018-09-28T11:45:04.854Z,18.7
2018-09-28T11:46:05.198Z,18.7
2018-09-28T11:47:05.162Z,18.76
2018-09-28T11:48:05.182Z,18.91
2018-09-28T11:49:05.378Z,19.07
2018-09-28T11:50:04.981Z,19.02
2018-09-28T11:51:05.251Z,19.18
2018-09-28T11:52:19.936Z,19.13
2018-09-28T11:53:05.301Z,18.72
2018-09-28T11:54:05.324Z,18.47
2018-09-28T11:55:05.087Z,18.54
2018-09-28T11:56:05.368Z,18.58
2018-09-28T11:57:05.486Z,18.44
2018-09-28T11:58:05.420Z,18.66
2018-09-28T12:00:19.869Z,18.55
2018-09-28T12:01:05.489Z,18.75
2018-09-28T12:02:05.515Z,18.75
2018-09-28T12:03:05.555Z,18.67
2018-09-28T12:04:05.298Z,18.45
2018-09-28T12:05:05.394Z,18.5
2018-09-28T12:07:05.733Z,18.62
2018-09-28T12:08:05.393Z,18.82
2018-09-28T12:09:05.674Z,18.8
2018-09-28T12:10:05.696Z,18.58
2018-09-28T12:11:06.041Z,18.63
2018-09-28T12:12:05.748Z,18.57
2018-09-28T12:13:05.775Z,18.44
2018-09-28T12:14:05.787Z,18.39
2018-09-28T12:15:05.563Z,18.51
2018-09-28T12:16:20.497Z,18.5
2018-09-28T12:17:05.866Z,18.27
2018-09-28T12:18:05.645Z,18.17
2018-09-28T12:19:05.951Z,18.26
2018-09-28T12:20:05.951Z,18.39
2018-09-28T12:21:05.970Z,18.55
2018-09-28T12:22:05.985Z,18.76
2018-09-28T12:23:06.006Z,18.48
2018-09-28T12:24:06.052Z,18.51
2018-09-28T12:25:06.055Z,18.51
2018-09-28T12:26:06.072Z,18.55
2018-09-28T12:27:06.096Z,18.6
2018-09-28T12:28:06.138Z,18.47
2018-09-28T12:29:06.140Z,18.47
2018-09-28T12:30:05.946Z,18.41
2018-09-28T12:31:06.190Z,18.36
2018-09-28T12:32:20.615Z,18.17
2018-09-28T12:33:06.237Z,18.17
2018-09-28T12:34:06.260Z,18.1
2018-09-28T12:36:05.792Z,17.86
2018-09-28T12:37:06.320Z,17.74
2018-09-28T12:38:06.096Z,17.78
2018-09-28T12:39:06.254Z,17.72
2018-09-28T12:40:06.430Z,17.71
2018-09-28T12:41:06.427Z,17.58
2018-09-28T12:42:06.195Z,17.31
2018-09-28T12:43:06.211Z,17.28
2018-09-28T12:44:06.250Z,17.25
2018-09-28T12:45:07.102Z,17.43
2018-09-28T12:47:21.227Z,17.58
2018-09-28T12:48:06.632Z,17.7
2018-09-28T12:49:06.618Z,17.72
2018-09-28T12:50:06.430Z,17.66
2018-09-28T12:51:06.398Z,17.72
2018-09-28T12:52:06.682Z,17.82
2018-09-28T12:53:06.709Z,17.64
2018-09-28T12:54:06.749Z,17.54
2018-09-28T12:55:21.410Z,17.43
2018-09-28T12:56:06.828Z,17.49
2018-09-28T12:57:06.542Z,17.43
2018-09-28T12:58:06.559Z,17.52
2018-09-28T12:59:06.581Z,17.68
2018-09-28T13:01:07.559Z,17.28
2018-09-28T13:02:06.656Z,17.3
2018-09-28T13:03:06.689Z,17.33
2018-09-28T13:04:06.697Z,17.26
2018-09-28T13:06:06.798Z,17.46
2018-09-28T13:07:06.769Z,17.49
2018-09-28T13:09:07.072Z,17.63
2018-09-28T13:10:06.583Z,17.71
2018-09-28T13:11:06.862Z,17.77
2018-09-28T13:12:06.634Z,17.74
2018-09-28T13:13:21.567Z,17.78
2018-09-28T13:14:06.938Z,17.78
2018-09-28T13:15:07.310Z,17.71
2018-09-28T13:16:06.975Z,17.66
2018-09-28T13:17:07.000Z,17.62
2018-09-28T13:18:07.295Z,17.31
2018-09-28T13:19:21.961Z,17.41
2018-09-28T13:21:07.504Z,17.66
2018-09-28T13:22:07.113Z,17.9
2018-09-28T13:23:07.135Z,17.89
2018-09-28T13:24:07.219Z,17.92
2018-09-28T13:25:07.025Z,17.89
2018-09-28T13:26:06.968Z,17.86
2018-09-28T13:27:07.536Z,17.97
2018-09-28T13:28:22.172Z,18.17
2018-09-28T13:29:07.411Z,18.03
2018-09-28T13:30:07.312Z,17.97
2018-09-28T13:31:07.322Z,17.89
2018-09-28T13:32:07.443Z,17.77
2018-09-28T13:33:07.367Z,17.72
2018-09-28T13:34:07.391Z,17.89
2018-09-28T13:35:22.332Z,17.41
2018-09-28T13:36:07.869Z,17.25
2018-09-28T13:37:07.463Z,17.48
2018-09-28T13:38:07.505Z,17.31
2018-09-28T13:41:07.813Z,17.51
2018-09-28T13:42:07.841Z,17.52
2018-09-28T13:43:22.517Z,17.4
2018-09-28T13:44:22.617Z,17.59
2018-09-28T13:45:08.174Z,17.56
2018-09-28T13:46:08.313Z,17.68
2018-09-28T13:47:07.955Z,17.63
2018-09-28T13:48:07.729Z,17.77
2018-09-28T13:49:07.998Z,17.95
2018-09-28T13:50:07.875Z,17.78
2018-09-28T13:51:22.699Z,17.63
2018-09-28T13:52:08.438Z,17.55
2018-09-28T13:53:08.084Z,17.72
2018-09-28T13:54:08.132Z,17.52
2018-09-28T13:56:08.491Z,17.31
2018-09-28T13:57:08.177Z,17.25
2018-09-28T13:58:08.264Z,17.21